createdAt,value
2023-07-28T00:00:28.952Z,98062.53
2023-07-28T00:02:57.825Z,98063.81
2023-07-28T00:05:26.453Z,98066.50
2023-07-28T00:07:56.366Z,98064.13
2023-07-28T00:10:25.406Z,98080.16
2023-07-28T00:12:53.957Z,98078.94
2023-07-28T00:15:22.868Z,98104.34
2023-07-28T00:17:51.606Z,98094.19
2023-07-28T00:20:20.519Z,98104.22
2023-07-28T00:22:49.008Z,98094.25
2023-07-28T00:25:19.216Z,98101.69
2023-07-28T00:27:48.645Z,98124.47
2023-07-28T00:30:18.377Z,98110.84
2023-07-28T00:32:47.221Z,98142.19
2023-07-28T00:35:15.950Z,98141.72
2023-07-28T00:37:44.399Z,98142.44
2023-07-28T00:40:14.215Z,98128.41
2023-07-28T00:42:44.183Z,98113.97
2023-07-28T00:45:13.000Z,98125.44
2023-07-28T00:47:42.040Z,98101.13
2023-07-28T00:50:11.729Z,98096.47
2023-07-28T00:52:42.864Z,98104.59
2023-07-28T00:55:11.969Z,98124.38
2023-07-28T00:57:41.454Z,98117.28
2023-07-28T01:00:12.819Z,98096.00
2023-07-28T01:02:41.916Z,98097.28
2023-07-28T01:05:10.977Z,98099.78
2023-07-28T01:07:45.141Z,98093.59
2023-07-28T01:10:17.489Z,98097.53
2023-07-28T01:12:46.109Z,98104.09
2023-07-28T01:15:16.874Z,98093.78
2023-07-28T01:17:45.542Z,98093.31
2023-07-28T01:20:14.473Z,98093.66
2023-07-28T01:22:51.101Z,98093.13
2023-07-28T01:25:25.353Z,98083.19
2023-07-28T01:27:56.135Z,98075.69
2023-07-28T01:30:27.255Z,98075.78
2023-07-28T01:32:56.954Z,98081.78
2023-07-28T01:35:25.879Z,98069.59
2023-07-28T01:37:54.674Z,98073.53
2023-07-28T01:40:23.320Z,98064.78
2023-07-28T01:42:51.856Z,98072.69
2023-07-28T01:45:21.861Z,98060.47
2023-07-28T01:47:51.048Z,98050.94
2023-07-28T01:50:19.937Z,98054.69
2023-07-28T01:52:50.895Z,98058.50
2023-07-28T01:55:19.698Z,98055.03
2023-07-28T01:57:54.564Z,98054.22
2023-07-28T02:00:25.101Z,98041.28
2023-07-28T02:02:54.124Z,98042.34
2023-07-28T02:05:23.113Z,98036.41
2023-07-28T02:07:51.731Z,98041.06
2023-07-28T02:10:20.468Z,98047.41
2023-07-28T02:12:49.566Z,98044.66
2023-07-28T02:15:18.565Z,98062.94
2023-07-28T02:17:49.308Z,98057.94
2023-07-28T02:20:30.599Z,98042.38
2023-07-28T02:22:59.620Z,98035.41
2023-07-28T02:25:28.268Z,98028.44
2023-07-28T02:27:56.833Z,98038.63
2023-07-28T02:30:27.529Z,98039.22
2023-07-28T02:32:57.590Z,98042.47
2023-07-28T02:35:26.255Z,98036.94
2023-07-28T02:37:55.296Z,98049.25
2023-07-28T02:40:23.855Z,98066.63
2023-07-28T02:42:54.269Z,98066.03
2023-07-28T02:45:22.816Z,98069.13
2023-07-28T02:47:51.491Z,98073.31
2023-07-28T02:50:21.444Z,98097.38
2023-07-28T02:52:50.126Z,98097.19
2023-07-28T02:55:19.057Z,98108.19
2023-07-28T02:57:48.824Z,98087.22
2023-07-28T03:00:17.660Z,98106.84
2023-07-28T03:02:46.747Z,98092.13
2023-07-28T03:05:15.794Z,98090.97
2023-07-28T03:08:06.461Z,98071.03
2023-07-28T03:10:35.303Z,98060.25
2023-07-28T03:13:03.854Z,98057.16
2023-07-28T03:15:32.517Z,98066.25
2023-07-28T03:18:01.008Z,98105.53
2023-07-28T03:20:29.704Z,98135.00
2023-07-28T03:22:58.841Z,98150.34
2023-07-28T03:25:28.945Z,98157.66
2023-07-28T03:27:57.578Z,98142.78
2023-07-28T03:30:26.160Z,98121.56
2023-07-28T03:32:54.789Z,98127.16
2023-07-28T03:35:24.553Z,98104.34
2023-07-28T03:38:02.666Z,98132.13
2023-07-28T03:40:33.146Z,98143.94
2023-07-28T03:43:02.267Z,98146.56
2023-07-28T03:45:31.244Z,98166.13
2023-07-28T03:47:59.980Z,98190.56
2023-07-28T03:50:29.163Z,98225.09
2023-07-28T03:52:58.094Z,98264.56
2023-07-28T03:55:26.972Z,98286.03
2023-07-28T03:57:56.945Z,98290.81
2023-07-28T04:00:25.632Z,98276.00
2023-07-28T04:02:54.234Z,98255.38
2023-07-28T04:05:22.900Z,98232.97
2023-07-28T04:07:51.760Z,98218.47
2023-07-28T04:10:20.454Z,98180.50
2023-07-28T04:12:49.194Z,98139.09
2023-07-28T04:15:19.109Z,98069.16
2023-07-28T04:17:47.825Z,98005.28
2023-07-28T04:20:16.407Z,97943.28
2023-07-28T04:22:45.117Z,97953.59
2023-07-28T04:25:14.421Z,97928.22
2023-07-28T04:27:49.964Z,97941.50
2023-07-28T04:30:20.465Z,97999.75
2023-07-28T04:32:49.190Z,97994.28
2023-07-28T04:35:21.549Z,97985.91
2023-07-28T04:38:10.695Z,97972.84
2023-07-28T04:40:58.964Z,97973.69
2023-07-28T04:43:44.490Z,97991.03
2023-07-28T04:46:15.077Z,98008.38
2023-07-28T04:48:45.970Z,98017.13
2023-07-28T04:51:34.827Z,98010.53
2023-07-28T04:54:21.811Z,98030.03
2023-07-28T04:56:54.138Z,98026.56
2023-07-28T04:59:29.898Z,98028.13
2023-07-28T05:02:00.163Z,98049.38
2023-07-28T05:04:29.136Z,98045.66
2023-07-28T05:06:58.180Z,98067.91
2023-07-28T05:09:26.908Z,98059.59
2023-07-28T05:11:55.619Z,98066.78
2023-07-28T05:14:24.266Z,98047.88
2023-07-28T05:16:52.975Z,98057.72
2023-07-28T05:19:34.678Z,98067.81
2023-07-28T05:22:07.806Z,98081.03
2023-07-28T05:24:56.859Z,98067.41
2023-07-28T05:27:45.535Z,98060.16
2023-07-28T05:30:14.221Z,98052.53
2023-07-28T05:32:43.286Z,98066.56
2023-07-28T05:35:30.201Z,98065.72
2023-07-28T05:37:58.777Z,98060.00
2023-07-28T05:40:27.592Z,98067.03
2023-07-28T05:42:56.470Z,98051.28
2023-07-28T05:45:25.001Z,98057.84
2023-07-28T05:47:54.070Z,98060.84
2023-07-28T05:50:22.758Z,98069.50
2023-07-28T05:52:52.909Z,98053.47
2023-07-28T05:55:21.573Z,98053.22
2023-07-28T05:57:50.214Z,98059.78
2023-07-28T06:00:19.219Z,98064.03
2023-07-28T06:02:48.409Z,98048.00
2023-07-28T06:05:33.601Z,98053.78
2023-07-28T06:08:04.164Z,98057.03
2023-07-28T06:10:32.767Z,98067.06
2023-07-28T06:13:01.508Z,98089.31
2023-07-28T06:15:32.832Z,98093.81
2023-07-28T06:18:01.620Z,98094.09
2023-07-28T06:20:30.818Z,98079.69
2023-07-28T06:22:59.594Z,98077.69
2023-07-28T06:25:29.559Z,98061.50
2023-07-28T06:27:58.561Z,98072.03
2023-07-28T06:30:27.331Z,98077.66
2023-07-28T06:32:56.313Z,98083.53
2023-07-28T06:35:25.199Z,98105.91
2023-07-28T06:37:54.039Z,98157.31
2023-07-28T06:40:22.780Z,98206.06
2023-07-28T06:42:53.130Z,98213.91
2023-07-28T06:45:22.443Z,98196.28
2023-07-28T06:47:52.679Z,98213.09
2023-07-28T06:50:22.643Z,98278.56
2023-07-28T06:52:52.174Z,98321.72
2023-07-28T06:55:25.307Z,98318.59
2023-07-28T06:57:55.286Z,98330.84
2023-07-28T07:00:24.399Z,98280.47
2023-07-28T07:02:53.502Z,98278.22
2023-07-28T07:05:21.967Z,98257.56
2023-07-28T07:07:50.797Z,98242.09
2023-07-28T07:10:19.627Z,98221.50
2023-07-28T07:12:48.776Z,98216.22
2023-07-28T07:15:19.043Z,98187.72
2023-07-28T07:17:47.860Z,98170.19
2023-07-28T07:20:16.789Z,98146.84
2023-07-28T07:22:45.484Z,98129.72
2023-07-28T07:25:14.095Z,98114.63
2023-07-28T07:27:42.981Z,98134.97
2023-07-28T07:30:12.243Z,98149.94
2023-07-28T07:32:42.649Z,98145.28
2023-07-28T07:35:11.634Z,98142.41
2023-07-28T07:37:40.477Z,98134.03
2023-07-28T07:40:10.029Z,98122.69
2023-07-28T07:42:45.580Z,98143.63
2023-07-28T07:45:15.028Z,98157.88
2023-07-28T07:47:45.260Z,98182.19
2023-07-28T07:50:14.831Z,98174.63
2023-07-28T07:52:43.525Z,98180.84
2023-07-28T07:55:13.575Z,98170.91
2023-07-28T07:57:42.561Z,98183.97
2023-07-28T08:00:12.490Z,98193.91
2023-07-28T08:02:46.949Z,98186.03
2023-07-28T08:05:16.273Z,98197.25
2023-07-28T08:07:45.632Z,98185.16
2023-07-28T08:10:14.382Z,98185.31
2023-07-28T08:12:45.940Z,98180.31
2023-07-28T08:15:14.741Z,98177.19
2023-07-28T08:17:44.911Z,98195.88
2023-07-28T08:20:14.266Z,98174.75
2023-07-28T08:22:42.771Z,98183.88
2023-07-28T08:25:11.646Z,98176.25
2023-07-28T08:27:40.268Z,98147.00
2023-07-28T08:30:10.227Z,98173.72
2023-07-28T08:32:39.611Z,98172.31
2023-07-28T08:35:10.455Z,98192.13
2023-07-28T08:37:39.691Z,98183.78
2023-07-28T08:40:09.676Z,98191.72
2023-07-28T08:42:39.625Z,98215.38
2023-07-28T08:45:10.379Z,98218.88
2023-07-28T08:47:41.079Z,98223.91
2023-07-28T08:50:12.324Z,98223.22
2023-07-28T08:52:51.827Z,98200.06
2023-07-28T08:55:20.740Z,98229.44
2023-07-28T08:57:49.371Z,98233.94
2023-07-28T09:00:19.109Z,98218.06
2023-07-28T09:02:51.574Z,98202.44
2023-07-28T09:05:25.538Z,98212.22
2023-07-28T09:07:54.792Z,98217.94
2023-07-28T09:10:23.337Z,98230.09
2023-07-28T09:12:53.715Z,98228.81
2023-07-28T09:15:22.144Z,98244.38
2023-07-28T09:17:50.805Z,98234.09
2023-07-28T09:20:19.673Z,98250.38
2023-07-28T09:22:54.161Z,98253.19
2023-07-28T09:25:23.202Z,98252.25
2023-07-28T09:27:52.549Z,98263.38
2023-07-28T09:30:23.131Z,98284.28
2023-07-28T09:32:53.137Z,98284.13
2023-07-28T09:35:23.064Z,98289.63
2023-07-28T09:37:56.251Z,98318.50
2023-07-28T09:40:25.543Z,98322.06
2023-07-28T09:42:56.599Z,98307.38
2023-07-28T09:47:59.096Z,98304.88
2023-07-28T09:50:30.073Z,98288.50
2023-07-28T09:53:05.252Z,98269.34
2023-07-28T09:55:36.595Z,98292.19
2023-07-28T09:58:08.451Z,98306.19
2023-07-28T10:00:38.078Z,98312.25
2023-07-28T10:03:06.831Z,98314.44
2023-07-28T10:05:36.476Z,98296.66
2023-07-28T10:08:07.741Z,98302.91
2023-07-28T10:10:36.719Z,98289.09
2023-07-28T10:13:05.488Z,98311.81
2023-07-28T10:15:34.769Z,98319.41
2023-07-28T10:18:03.378Z,98319.59
2023-07-28T10:23:10.819Z,98319.16
2023-07-28T10:25:40.217Z,98304.00
2023-07-28T10:28:10.560Z,98303.50
2023-07-28T10:30:41.595Z,98307.72
2023-07-28T10:33:29.205Z,98301.81
2023-07-28T10:35:57.901Z,98287.75
2023-07-28T10:38:35.760Z,98271.53
2023-07-28T10:41:11.678Z,98260.31
2023-07-28T10:43:40.546Z,98268.34
2023-07-28T10:46:11.568Z,98257.00
2023-07-28T10:48:45.053Z,98235.56
2023-07-28T10:51:13.945Z,98228.88
2023-07-28T10:53:43.911Z,98232.34
2023-07-28T10:56:12.808Z,98229.53
2023-07-28T10:58:41.260Z,98288.84
2023-07-28T11:01:09.880Z,98253.88
2023-07-28T11:03:38.626Z,98267.19
2023-07-28T11:06:07.849Z,98259.41
2023-07-28T11:08:37.292Z,98239.16
2023-07-28T11:11:08.711Z,98236.81
2023-07-28T11:13:41.400Z,98231.00
2023-07-28T11:16:13.307Z,98209.41
2023-07-28T11:18:42.036Z,98193.09
2023-07-28T11:21:10.517Z,98207.63
2023-07-28T11:23:40.717Z,98221.56
2023-07-28T11:26:12.756Z,98236.44
2023-07-28T11:28:41.595Z,98268.66
2023-07-28T11:31:11.359Z,98282.19
2023-07-28T11:33:40.040Z,98297.66
2023-07-28T11:36:09.043Z,98304.59
2023-07-28T11:38:38.380Z,98311.50
2023-07-28T11:41:08.230Z,98317.56
2023-07-28T11:43:38.497Z,98326.00
2023-07-28T11:46:37.287Z,98324.31
2023-07-28T11:49:11.211Z,98339.28
2023-07-28T11:51:44.353Z,98326.25
2023-07-28T11:54:15.413Z,98309.06
2023-07-28T11:56:44.763Z,98302.56
2023-07-28T11:59:18.304Z,98330.72
2023-07-28T12:07:08.394Z,98350.16
2023-07-28T12:12:27.586Z,98374.06
2023-07-28T12:20:12.233Z,98388.19
2023-07-28T12:22:42.417Z,98397.59
2023-07-28T12:25:12.076Z,98400.63
2023-07-28T12:27:40.827Z,98400.97
2023-07-28T12:33:01.945Z,98408.16
2023-07-28T12:38:42.051Z,98415.97
2023-07-28T12:48:35.265Z,98421.28
2023-07-28T12:51:04.274Z,98423.91
2023-07-28T12:53:35.935Z,98438.75
2023-07-28T12:56:05.217Z,98429.81
2023-07-28T13:01:09.216Z,98441.28
2023-07-28T13:03:39.523Z,98432.34
2023-07-28T13:06:08.217Z,98431.41
2023-07-28T13:11:18.155Z,98449.03
2023-07-28T13:13:47.213Z,98462.03
2023-07-28T13:16:17.550Z,98455.13
2023-07-28T13:18:46.357Z,98449.94
2023-07-28T13:21:15.062Z,98457.19
2023-07-28T13:23:43.623Z,98453.31
2023-07-28T13:26:12.164Z,98459.81
2023-07-28T13:28:44.555Z,98459.00
2023-07-28T13:31:13.166Z,98465.72
2023-07-28T13:33:43.067Z,98461.09
2023-07-28T13:36:11.903Z,98478.47
2023-07-28T13:38:41.583Z,98477.50
2023-07-28T13:41:10.378Z,98468.66
2023-07-28T13:43:39.145Z,98465.31
2023-07-28T13:46:10.903Z,98457.63
2023-07-28T13:54:23.495Z,98430.16
2023-07-28T13:56:34.030Z,98400.47
2023-07-28T13:59:02.650Z,98370.38
2023-07-28T14:01:31.412Z,98354.38
2023-07-28T14:03:59.932Z,98330.72
2023-07-28T14:06:30.326Z,98323.97
2023-07-28T14:08:58.737Z,98328.91
2023-07-28T14:11:27.305Z,98344.78
2023-07-28T14:13:55.961Z,98358.63
2023-07-28T14:16:24.741Z,98370.97
2023-07-28T14:18:53.216Z,98353.63
2023-07-28T14:21:21.941Z,98349.66
2023-07-28T14:23:51.827Z,98337.03
2023-07-28T14:26:21.116Z,98350.28
2023-07-28T14:28:49.763Z,98376.91
2023-07-28T14:31:18.836Z,98413.44
2023-07-28T14:33:49.164Z,98421.53
2023-07-28T14:36:18.530Z,98424.28
2023-07-28T14:38:47.297Z,98441.13
2023-07-28T14:41:17.308Z,98430.06
2023-07-28T14:43:46.494Z,98424.16
2023-07-28T14:46:15.461Z,98416.09
2023-07-28T14:48:43.964Z,98419.31
2023-07-28T14:51:12.812Z,98412.72
2023-07-28T14:53:48.435Z,98411.84
2023-07-28T14:56:19.384Z,98403.06
2023-07-28T14:58:48.059Z,98408.84
2023-07-28T15:01:17.278Z,98406.63
2023-07-28T15:03:46.177Z,98423.56
2023-07-28T15:06:15.574Z,98429.47
2023-07-28T15:08:44.252Z,98450.25
2023-07-28T15:11:12.995Z,98457.91
2023-07-28T15:13:43.321Z,98442.47
2023-07-28T15:16:11.886Z,98458.66
2023-07-28T15:18:41.094Z,98445.97
2023-07-28T15:21:10.539Z,98468.25
2023-07-28T15:23:39.178Z,98462.16
2023-07-28T15:26:08.149Z,98446.03
2023-07-28T15:28:37.210Z,98449.91
2023-07-28T15:31:07.248Z,98458.34
2023-07-28T15:33:35.925Z,98454.66
2023-07-28T15:36:04.557Z,98447.09
2023-07-28T15:38:33.680Z,98444.22
2023-07-28T15:41:02.649Z,98450.97
2023-07-28T15:43:31.640Z,98437.31
2023-07-28T15:46:00.259Z,98448.38
2023-07-28T15:48:30.392Z,98463.31
2023-07-28T15:50:59.089Z,98464.16
2023-07-28T15:53:28.002Z,98469.84
2023-07-28T15:55:56.685Z,98459.63
2023-07-28T15:58:25.614Z,98469.91
2023-07-28T16:00:54.111Z,98462.56
2023-07-28T16:03:25.133Z,98452.88
2023-07-28T16:05:55.149Z,98460.34
2023-07-28T16:08:23.785Z,98446.75
2023-07-28T16:10:52.395Z,98418.00
2023-07-28T16:13:22.533Z,98425.97
2023-07-28T16:15:51.631Z,98454.59
2023-07-28T16:18:20.175Z,98477.03
2023-07-28T16:20:48.971Z,98472.88
2023-07-28T16:23:18.823Z,98468.00
2023-07-28T16:25:51.071Z,98502.19
2023-07-28T16:28:19.821Z,98508.50
2023-07-28T16:30:48.364Z,98505.31
2023-07-28T16:33:17.253Z,98514.22
2023-07-28T16:35:45.734Z,98517.31
2023-07-28T16:38:14.362Z,98514.56
2023-07-28T16:40:44.481Z,98495.06
2023-07-28T16:43:13.269Z,98490.09
2023-07-28T16:45:42.949Z,98498.31
2023-07-28T16:48:11.859Z,98506.91
2023-07-28T16:50:40.502Z,98513.31
2023-07-28T16:53:09.367Z,98497.41
2023-07-28T16:55:38.078Z,98505.94
2023-07-28T16:58:08.291Z,98490.56
2023-07-28T17:00:37.034Z,98486.53
2023-07-28T17:03:05.880Z,98516.50
2023-07-28T17:05:34.602Z,98512.25
2023-07-28T17:08:03.593Z,98499.72
2023-07-28T17:10:32.773Z,98515.16
2023-07-28T17:13:01.764Z,98507.13
2023-07-28T17:15:40.169Z,98502.75
2023-07-28T17:18:12.168Z,98501.72
2023-07-28T17:20:41.124Z,98520.00
2023-07-28T17:23:09.708Z,98506.13
2023-07-28T17:25:39.007Z,98510.72
2023-07-28T17:28:08.556Z,98506.03
2023-07-28T17:30:38.841Z,98523.38
2023-07-28T17:33:07.547Z,98513.09
2023-07-28T17:35:36.244Z,98512.63
2023-07-28T17:38:04.722Z,98523.75
2023-07-28T17:40:33.480Z,98520.13
2023-07-28T17:43:02.028Z,98514.22
2023-07-28T17:45:30.584Z,98533.31
2023-07-28T17:48:00.628Z,98529.78
2023-07-28T17:50:29.558Z,98511.59
2023-07-28T17:52:58.089Z,98516.19
2023-07-28T17:55:27.167Z,98525.47
2023-07-28T17:57:55.728Z,98516.72
2023-07-28T18:00:24.760Z,98530.97
2023-07-28T18:02:53.769Z,98539.53
2023-07-28T18:05:23.865Z,98541.38
2023-07-28T18:07:52.661Z,98519.53
2023-07-28T18:10:21.298Z,98522.50
2023-07-28T18:12:50.201Z,98536.78
2023-07-28T18:15:18.857Z,98531.66
2023-07-28T18:17:47.469Z,98531.78
2023-07-28T18:20:16.008Z,98531.06
2023-07-28T18:22:46.090Z,98541.28
2023-07-28T18:25:14.864Z,98542.88
2023-07-28T18:27:43.555Z,98545.09
2023-07-28T18:30:13.488Z,98541.16
2023-07-28T18:32:42.517Z,98529.34
2023-07-28T18:35:11.481Z,98519.31
2023-07-28T18:37:40.373Z,98534.75
2023-07-28T18:40:11.233Z,98519.03
2023-07-28T18:42:39.913Z,98519.19
2023-07-28T18:45:09.921Z,98523.75
2023-07-28T18:47:38.672Z,98535.94
2023-07-28T18:50:08.381Z,98539.41
2023-07-28T18:52:36.925Z,98518.66
2023-07-28T18:55:05.880Z,98540.97
2023-07-28T18:57:35.914Z,98536.63
2023-07-28T19:00:08.183Z,98549.44
2023-07-28T19:02:37.349Z,98555.63
2023-07-28T19:05:06.519Z,98542.03
2023-07-28T19:07:35.265Z,98542.63
2023-07-28T19:10:04.181Z,98544.31
2023-07-28T19:12:36.859Z,98545.69
2023-07-28T19:15:06.407Z,98548.41
2023-07-28T19:17:35.393Z,98553.81
2023-07-28T19:20:05.090Z,98550.41
2023-07-28T19:22:34.756Z,98537.13
2023-07-28T19:25:04.621Z,98557.16
2023-07-28T19:27:33.356Z,98553.03
2023-07-28T19:30:03.451Z,98550.84
2023-07-28T19:32:33.980Z,98565.53
2023-07-28T19:35:03.324Z,98557.16
2023-07-28T19:37:44.021Z,98567.91
2023-07-28T19:40:14.600Z,98570.19
2023-07-28T19:42:43.090Z,98561.13
2023-07-28T19:45:13.253Z,98568.66
2023-07-28T19:47:42.047Z,98585.09
2023-07-28T19:50:14.233Z,98579.19
2023-07-28T19:52:46.543Z,98566.09
2023-07-28T19:55:15.215Z,98579.13
2023-07-28T19:57:43.739Z,98573.63
2023-07-28T20:00:15.088Z,98583.69
2023-07-28T20:02:43.941Z,98588.81
2023-07-28T20:05:15.753Z,98585.66
2023-07-28T20:07:44.458Z,98594.53
2023-07-28T20:10:13.126Z,98594.25
2023-07-28T20:12:41.659Z,98605.41
2023-07-28T20:15:10.916Z,98587.22
2023-07-28T20:17:41.144Z,98620.59
2023-07-28T20:20:11.008Z,98610.28
2023-07-28T20:22:39.771Z,98620.59
2023-07-28T20:25:09.060Z,98612.75
2023-07-28T20:27:45.316Z,98617.13
2023-07-28T20:30:15.289Z,98609.34
2023-07-28T20:32:45.338Z,98623.63
2023-07-28T20:35:14.512Z,98637.59
2023-07-28T20:37:43.043Z,98639.34
2023-07-28T20:40:12.837Z,98627.53
2023-07-28T20:42:41.670Z,98640.97
2023-07-28T20:45:10.967Z,98629.13
2023-07-28T20:47:40.139Z,98643.91
2023-07-28T20:50:10.898Z,98639.44
2023-07-28T20:52:39.587Z,98632.13
2023-07-28T20:55:09.268Z,98644.22
2023-07-28T20:57:38.072Z,98643.47
2023-07-28T21:00:07.956Z,98640.84
2023-07-28T21:02:37.966Z,98648.16
2023-07-28T21:05:08.393Z,98669.16
2023-07-28T21:07:38.362Z,98659.78
2023-07-28T21:10:08.386Z,98642.69
2023-07-28T21:12:36.955Z,98635.94
2023-07-28T21:15:06.233Z,98657.16
2023-07-28T21:17:35.387Z,98643.06
2023-07-28T21:20:05.850Z,98659.25
2023-07-28T21:22:35.025Z,98661.91
2023-07-28T21:25:05.359Z,98668.41
2023-07-28T21:27:34.323Z,98661.31
2023-07-28T21:30:03.884Z,98665.84
2023-07-28T21:32:33.740Z,98672.78
2023-07-28T21:35:02.873Z,98666.47
2023-07-28T21:37:33.204Z,98665.50
2023-07-28T21:40:01.802Z,98662.47
2023-07-28T21:42:35.667Z,98674.16
2023-07-28T21:45:04.807Z,98672.94
2023-07-28T21:47:34.154Z,98666.47
2023-07-28T21:50:02.904Z,98659.44
2023-07-28T21:52:33.657Z,98683.53
2023-07-28T21:55:02.419Z,98674.06
2023-07-28T21:57:32.390Z,98680.16
2023-07-28T22:00:02.750Z,98675.91
2023-07-28T22:02:39.139Z,98668.13
2023-07-28T22:05:07.973Z,98663.28
2023-07-28T22:07:36.840Z,98647.50
2023-07-28T22:10:06.696Z,98634.59
2023-07-28T22:12:35.637Z,98651.97
2023-07-28T22:15:06.690Z,98645.34
2023-07-28T22:17:36.153Z,98642.88
2023-07-28T22:20:05.683Z,98641.44
2023-07-28T22:22:34.888Z,98657.56
2023-07-28T22:25:03.903Z,98669.50
2023-07-28T22:27:32.860Z,98666.56
2023-07-28T22:30:01.449Z,98670.56
2023-07-28T22:32:36.880Z,98658.97
2023-07-28T22:35:10.086Z,98667.09
2023-07-28T22:37:38.961Z,98660.03
2023-07-28T22:40:10.156Z,98655.44
2023-07-28T22:42:38.992Z,98649.41
2023-07-28T22:45:08.886Z,98649.59
2023-07-28T22:47:39.631Z,98664.09
2023-07-28T22:50:09.670Z,98650.41
2023-07-28T22:52:38.302Z,98647.81
2023-07-28T22:55:16.295Z,98656.72
2023-07-28T22:57:45.697Z,98666.09
2023-07-28T23:00:18.221Z,98667.09
2023-07-28T23:02:48.622Z,98660.03
2023-07-28T23:05:17.561Z,98670.72
2023-07-28T23:07:46.267Z,98662.16
2023-07-28T23:10:17.749Z,98668.19
2023-07-28T23:12:46.840Z,98655.25
2023-07-28T23:15:15.914Z,98660.63
2023-07-28T23:17:45.724Z,98639.81
2023-07-28T23:20:15.908Z,98631.09
2023-07-28T23:22:45.284Z,98629.19
2023-07-28T23:25:14.184Z,98621.25
2023-07-28T23:27:42.952Z,98625.63
2023-07-28T23:30:13.212Z,98639.31
2023-07-28T23:32:41.833Z,98631.69
2023-07-28T23:35:10.554Z,98644.47
2023-07-28T23:37:40.443Z,98631.69
2023-07-28T23:40:10.861Z,98655.78
2023-07-28T23:42:39.912Z,98655.47
2023-07-28T23:45:09.852Z,98657.81
2023-07-28T23:47:39.409Z,98654.47
2023-07-28T23:50:09.870Z,98647.16
2023-07-28T23:52:40.459Z,98657.00
2023-07-28T23:55:09.509Z,98670.06
2023-07-28T23:57:39.407Z,98686.53
